createdAt,value
2023-09-06T00:01:10.496Z,81.67
2023-09-06T00:11:16.649Z,81.63
2023-09-06T00:21:23.332Z,81.74
2023-09-06T00:31:30.089Z,82.60
2023-09-06T00:41:41.463Z,82.41
2023-09-06T00:51:47.899Z,83.02
2023-09-06T01:01:54.034Z,83.98
2023-09-06T01:12:00.669Z,83.75
2023-09-06T01:22:10.787Z,83.71
2023-09-06T01:32:17.186Z,84.03
2023-09-06T01:42:23.838Z,84.33
2023-09-06T01:52:29.616Z,85.73
2023-09-06T02:02:35.490Z,85.75
2023-09-06T02:12:41.887Z,85.35
2023-09-06T02:22:49.660Z,86.03
2023-09-06T02:32:58.343Z,86.81
2023-09-06T02:43:05.801Z,88.07
2023-09-06T02:53:21.287Z,88.79
2023-09-06T03:03:29.683Z,89.93
2023-09-06T03:13:35.840Z,88.83
2023-09-06T03:23:45.669Z,88.17
2023-09-06T03:33:52.169Z,88.86
2023-09-06T03:43:58.036Z,88.87
2023-09-06T03:54:07.022Z,88.42
2023-09-06T04:04:14.282Z,88.91
2023-09-06T04:14:20.100Z,89.14
2023-09-06T04:24:26.010Z,89.23
2023-09-06T04:34:31.831Z,90.00
2023-09-06T04:44:37.601Z,90.30
2023-09-06T04:54:44.531Z,90.25
2023-09-06T05:04:51.696Z,90.36
2023-09-06T05:14:58.357Z,90.33
2023-09-06T05:25:04.171Z,95.45
2023-09-06T05:35:12.798Z,91.73
2023-09-06T05:45:20.034Z,80.34
2023-09-06T05:55:25.992Z,67.53
2023-09-06T06:05:32.056Z,55.90
2023-09-06T06:15:37.890Z,43.84
2023-09-06T06:25:43.904Z,36.04
2023-09-06T06:35:49.965Z,31.50
2023-09-06T06:45:57.525Z,27.72
2023-09-06T06:56:03.368Z,24.93
2023-09-06T07:06:09.565Z,22.90
2023-09-06T07:16:15.557Z,20.99
2023-09-06T07:26:22.885Z,19.54
2023-09-06T07:36:28.707Z,18.56
2023-09-06T07:46:35.536Z,17.48
2023-09-06T07:56:41.413Z,16.83
2023-09-06T08:06:45.864Z,15.90
2023-09-06T08:16:51.830Z,15.47
2023-09-06T08:26:57.698Z,15.01
2023-09-06T08:37:03.630Z,14.87
2023-09-06T08:47:14.040Z,15.40
2023-09-06T08:57:20.090Z,18.08
2023-09-06T09:07:26.625Z,20.87
2023-09-06T09:17:38.013Z,22.63
2023-09-06T09:27:57.675Z,24.56
2023-09-06T09:38:07.322Z,26.15
2023-09-06T09:48:13.732Z,27.55
2023-09-06T09:58:19.176Z,28.63
2023-09-06T10:08:25.731Z,29.38
2023-09-06T10:18:30.624Z,30.42
2023-09-06T10:28:37.205Z,31.40
2023-09-06T10:39:20.015Z,31.60
2023-09-06T10:49:30.890Z,32.67
2023-09-06T10:59:44.623Z,33.31
2023-09-06T11:09:51.893Z,34.36
2023-09-06T11:19:56.574Z,34.77
2023-09-06T11:30:16.882Z,34.64
2023-09-06T11:40:23.655Z,34.58
2023-09-06T11:50:32.078Z,35.18
2023-09-06T12:00:44.649Z,34.84
2023-09-06T12:10:51.806Z,35.26
2023-09-06T12:20:58.949Z,35.63
2023-09-06T12:31:16.678Z,35.57
2023-09-06T12:41:23.672Z,35.91
2023-09-06T12:51:29.637Z,36.01
2023-09-06T13:01:35.636Z,36.28
2023-09-06T13:11:41.701Z,36.68
2023-09-06T13:21:47.456Z,36.84
2023-09-06T13:31:53.535Z,36.77
2023-09-06T13:41:59.538Z,36.90
2023-09-06T13:52:06.492Z,36.82
2023-09-06T14:02:12.447Z,37.11
2023-09-06T14:12:18.734Z,37.52
2023-09-06T14:22:25.293Z,37.47
2023-09-06T14:32:31.135Z,37.57
2023-09-06T14:42:37.364Z,37.61
2023-09-06T14:52:43.149Z,37.47
2023-09-06T15:02:49.023Z,37.93
2023-09-06T15:12:54.988Z,38.08
2023-09-06T15:23:00.707Z,38.32
2023-09-06T15:33:07.465Z,38.58
2023-09-06T15:43:13.872Z,38.68
2023-09-06T15:53:19.593Z,39.43
2023-09-06T16:03:25.762Z,39.85
2023-09-06T16:13:31.834Z,40.52
2023-09-06T16:23:37.662Z,41.62
2023-09-06T16:33:43.605Z,42.44
2023-09-06T16:43:49.461Z,43.33
2023-09-06T16:53:55.190Z,45.37
2023-09-06T17:04:01.420Z,47.28
2023-09-06T17:14:29.374Z,48.61
2023-09-06T17:24:33.628Z,49.96
2023-09-06T17:34:39.425Z,51.67
2023-09-06T17:44:45.442Z,53.76
2023-09-06T17:54:51.756Z,55.63
2023-09-06T18:04:58.162Z,56.03
2023-09-06T18:15:09.911Z,57.54
2023-09-06T18:25:15.835Z,58.59
2023-09-06T18:35:22.373Z,59.09
2023-09-06T18:45:28.300Z,60.16
2023-09-06T18:55:34.853Z,61.48
2023-09-06T19:05:41.521Z,62.57
2023-09-06T19:15:49.223Z,63.63
2023-09-06T19:25:57.362Z,64.64
2023-09-06T19:36:01.927Z,65.39
2023-09-06T19:46:07.760Z,65.83
2023-09-06T19:56:18.190Z,66.41
2023-09-06T20:06:23.880Z,67.18
2023-09-06T20:16:30.798Z,67.93
2023-09-06T20:26:36.741Z,68.60
2023-09-06T20:36:42.820Z,68.88
2023-09-06T20:46:48.602Z,68.97
2023-09-06T20:56:54.533Z,69.97
2023-09-06T21:07:00.525Z,71.00
2023-09-06T21:17:07.088Z,72.06
2023-09-06T21:27:13.184Z,72.66
2023-09-06T21:37:18.989Z,73.54
2023-09-06T21:47:24.968Z,73.98
2023-09-06T21:57:31.003Z,74.25
2023-09-06T22:07:36.892Z,75.28
2023-09-06T22:17:43.525Z,75.72
2023-09-06T22:27:51.410Z,76.47
2023-09-06T22:37:57.399Z,77.41
2023-09-06T22:48:03.376Z,77.31
2023-09-06T22:58:09.332Z,78.06
2023-09-06T23:08:16.194Z,78.34
2023-09-06T23:18:23.274Z,78.60
2023-09-06T23:28:30.798Z,79.63
2023-09-06T23:38:37.022Z,79.75
2023-09-06T23:48:43.254Z,80.41
2023-09-06T23:58:49.018Z,80.50
